sensor_id;sensor_type;location;lat;lon;timestamp;pressure;altitude;pressure_sealevel;temperature;humidity
12247;BME280;6186;52.022;4.692;2023-03-30T00:01:18;100572.41;;;14.49;100.00
12247;BME280;6186;52.022;4.692;2023-03-30T00:03:45;100573.34;;;14.48;100.00
12247;BME280;6186;52.022;4.692;2023-03-30T00:06:11;100588.44;;;14.46;100.00
12247;BME280;6186;52.022;4.692;2023-03-30T00:08:39;100590.31;;;14.44;100.00
12247;BME280;6186;52.022;4.692;2023-03-30T00:11:07;100571.81;;;14.42;100.00
12247;BME280;6186;52.022;4.692;2023-03-30T00:13:34;100572.91;;;14.38;100.00
12247;BME280;6186;52.022;4.692;2023-03-30T00:16:00;100568.50;;;14.37;100.00
12247;BME280;6186;52.022;4.692;2023-03-30T00:18:26;100556.34;;;14.33;100.00
12247;BME280;6186;52.022;4.692;2023-03-30T00:20:51;100564.22;;;14.35;100.00
12247;BME280;6186;52.022;4.692;2023-03-30T00:23:20;100578.38;;;14.34;100.00
12247;BME280;6186;52.022;4.692;2023-03-30T00:25:46;100589.84;;;14.34;100.00
12247;BME280;6186;52.022;4.692;2023-03-30T00:28:12;100576.59;;;14.34;100.00
12247;BME280;6186;52.022;4.692;2023-03-30T00:30:37;100585.53;;;14.32;100.00
12247;BME280;6186;52.022;4.692;2023-03-30T00:33:03;100582.97;;;14.30;100.00
12247;BME280;6186;52.022;4.692;2023-03-30T00:35:28;100585.84;;;14.24;100.00
12247;BME280;6186;52.022;4.692;2023-03-30T00:37:58;100596.31;;;14.27;100.00
12247;BME280;6186;52.022;4.692;2023-03-30T00:40:29;100577.91;;;14.24;100.00
12247;BME280;6186;52.022;4.692;2023-03-30T00:43:04;100586.78;;;14.23;100.00
12247;BME280;6186;52.022;4.692;2023-03-30T00:45:34;100574.47;;;14.22;100.00
12247;BME280;6186;52.022;4.692;2023-03-30T00:48:09;100571.88;;;14.21;100.00
12247;BME280;6186;52.022;4.692;2023-03-30T00:50:45;100569.34;;;14.17;100.00
12247;BME280;6186;52.022;4.692;2023-03-30T00:53:14;100558.84;;;14.16;100.00
12247;BME280;6186;52.022;4.692;2023-03-30T00:55:43;100557.13;;;14.15;100.00
12247;BME280;6186;52.022;4.692;2023-03-30T00:58:09;100541.78;;;14.03;100.00
12247;BME280;6186;52.022;4.692;2023-03-30T01:00:37;100564.28;;;14.13;100.00
12247;BME280;6186;52.022;4.692;2023-03-30T01:03:12;100568.72;;;14.12;100.00
12247;BME280;6186;52.022;4.692;2023-03-30T01:05:39;100556.59;;;14.07;100.00
12247;BME280;6186;52.022;4.692;2023-03-30T01:08:08;100566.22;;;14.09;100.00
12247;BME280;6186;52.022;4.692;2023-03-30T01:10:34;100565.34;;;14.09;100.00
12247;BME280;6186;52.022;4.692;2023-03-30T01:13:01;100553.97;;;14.07;100.00
12247;BME280;6186;52.022;4.692;2023-03-30T01:15:32;100557.41;;;14.09;100.00
12247;BME280;6186;52.022;4.692;2023-03-30T01:18:08;100550.25;;;14.11;100.00
12247;BME280;6186;52.022;4.692;2023-03-30T01:21:20;100552.81;;;14.12;100.00
12247;BME280;6186;52.022;4.692;2023-03-30T01:24:08;100561.63;;;14.13;100.00
12247;BME280;6186;52.022;4.692;2023-03-30T01:29:22;100560.69;;;14.14;100.00
12247;BME280;6186;52.022;4.692;2023-03-30T01:40:15;100520.34;;;14.09;100.00
12247;BME280;6186;52.022;4.692;2023-03-30T01:50:45;100517.84;;;14.06;100.00
12247;BME280;6186;52.022;4.692;2023-03-30T01:55:59;100510.19;;;14.00;100.00
12247;BME280;6186;52.022;4.692;2023-03-30T01:58:36;100498.13;;;13.93;100.00
12247;BME280;6186;52.022;4.692;2023-03-30T02:01:05;100506.06;;;13.93;100.00
12247;BME280;6186;52.022;4.692;2023-03-30T02:03:33;100518.56;;;13.89;100.00
12247;BME280;6186;52.022;4.692;2023-03-30T02:06:07;100511.84;;;13.82;100.00
12247;BME280;6186;52.022;4.692;2023-03-30T02:08:35;100528.50;;;13.84;100.00
12247;BME280;6186;52.022;4.692;2023-03-30T02:11:02;100527.63;;;13.84;100.00
12247;BME280;6186;52.022;4.692;2023-03-30T02:13:30;100515.34;;;13.83;100.00
12247;BME280;6186;52.022;4.692;2023-03-30T02:16:11;100528.44;;;13.86;100.00
12247;BME280;6186;52.022;4.692;2023-03-30T02:18:37;100529.31;;;13.86;100.00
12247;BME280;6186;52.022;4.692;2023-03-30T02:21:03;100527.44;;;13.88;100.00
12247;BME280;6186;52.022;4.692;2023-03-30T02:23:32;100526.47;;;13.91;100.00
12247;BME280;6186;52.022;4.692;2023-03-30T02:25:59;100530.81;;;13.92;100.00
12247;BME280;6186;52.022;4.692;2023-03-30T02:28:25;100533.63;;;13.89;100.00
12247;BME280;6186;52.022;4.692;2023-03-30T02:30:50;100529.88;;;13.93;100.00
12247;BME280;6186;52.022;4.692;2023-03-30T02:39:25;100516.47;;;13.97;100.00
12247;BME280;6186;52.022;4.692;2023-03-30T02:44:41;100504.88;;;14.00;100.00
12247;BME280;6186;52.022;4.692;2023-03-30T02:49:49;100496.00;;;14.01;100.00
12247;BME280;6186;52.022;4.692;2023-03-30T02:52:36;100499.53;;;14.01;100.00
12247;BME280;6186;52.022;4.692;2023-03-30T02:55:18;100500.44;;;14.00;100.00
12247;BME280;6186;52.022;4.692;2023-03-30T03:00:24;100496.16;;;13.98;100.00
12247;BME280;6186;52.022;4.692;2023-03-30T03:02:53;100496.28;;;13.95;100.00
12247;BME280;6186;52.022;4.692;2023-03-30T03:05:22;100501.72;;;13.92;100.00
12247;BME280;6186;52.022;4.692;2023-03-30T03:07:48;100505.41;;;13.88;100.00
12247;BME280;6186;52.022;4.692;2023-03-30T03:10:13;100497.56;;;13.86;100.00
12247;BME280;6186;52.022;4.692;2023-03-30T03:12:40;100500.28;;;13.85;100.00
12247;BME280;6186;52.022;4.692;2023-03-30T03:15:06;100506.47;;;13.84;100.00
12247;BME280;6186;52.022;4.692;2023-03-30T03:17:32;100490.75;;;13.81;100.00
12247;BME280;6186;52.022;4.692;2023-03-30T03:20:01;100491.66;;;13.80;100.00
12247;BME280;6186;52.022;4.692;2023-03-30T03:22:27;100485.47;;;13.81;100.00
12247;BME280;6186;52.022;4.692;2023-03-30T03:24:52;100464.28;;;13.81;100.00
12247;BME280;6186;52.022;4.692;2023-03-30T03:27:18;100468.78;;;13.79;100.00
12247;BME280;6186;52.022;4.692;2023-03-30T03:29:43;100480.81;;;13.86;100.00
12247;BME280;6186;52.022;4.692;2023-03-30T03:32:08;100478.09;;;13.87;100.00
12247;BME280;6186;52.022;4.692;2023-03-30T03:34:34;100481.53;;;13.89;100.00
12247;BME280;6186;52.022;4.692;2023-03-30T03:36:59;100477.09;;;13.90;100.00
12247;BME280;6186;52.022;4.692;2023-03-30T03:39:25;100465.09;;;13.83;100.00
12247;BME280;6186;52.022;4.692;2023-03-30T03:41:51;100476.03;;;13.94;100.00
12247;BME280;6186;52.022;4.692;2023-03-30T03:44:16;100467.25;;;13.93;100.00
12247;BME280;6186;52.022;4.692;2023-03-30T03:46:41;100468.91;;;13.96;100.00
12247;BME280;6186;52.022;4.692;2023-03-30T03:49:07;100459.19;;;13.96;100.00
12247;BME280;6186;52.022;4.692;2023-03-30T03:51:32;100478.53;;;13.97;100.00
12247;BME280;6186;52.022;4.692;2023-03-30T03:53:58;100470.56;;;13.98;100.00
12247;BME280;6186;52.022;4.692;2023-03-30T03:56:23;100467.91;;;13.98;100.00
12247;BME280;6186;52.022;4.692;2023-03-30T03:58:49;100469.69;;;13.98;100.00
12247;BME280;6186;52.022;4.692;2023-03-30T04:01:15;100469.69;;;13.98;100.00
12247;BME280;6186;52.022;4.692;2023-03-30T04:03:40;100474.13;;;13.97;100.00
12247;BME280;6186;52.022;4.692;2023-03-30T04:06:06;100483.91;;;13.95;100.00
12247;BME280;6186;52.022;4.692;2023-03-30T04:08:31;100467.31;;;13.92;100.00
12247;BME280;6186;52.022;4.692;2023-03-30T04:11:08;100473.66;;;13.88;100.00
12247;BME280;6186;52.022;4.692;2023-03-30T04:13:36;100468.38;;;13.88;100.00
12247;BME280;6186;52.022;4.692;2023-03-30T04:16:01;100471.38;;;13.80;100.00
12247;BME280;6186;52.022;4.692;2023-03-30T04:18:27;100475.94;;;13.77;100.00
12247;BME280;6186;52.022;4.692;2023-03-30T04:20:59;100481.47;;;13.71;100.00
12247;BME280;6186;52.022;4.692;2023-03-30T04:23:27;100475.66;;;13.63;100.00
12247;BME280;6186;52.022;4.692;2023-03-30T04:25:56;100478.59;;;13.57;100.00
12247;BME280;6186;52.022;4.692;2023-03-30T04:28:22;100480.56;;;13.52;100.00
12247;BME280;6186;52.022;4.692;2023-03-30T04:30:49;100472.09;;;13.44;100.00
12247;BME280;6186;52.022;4.692;2023-03-30T04:33:15;100469.50;;;13.42;100.00
12247;BME280;6186;52.022;4.692;2023-03-30T04:35:40;100475.00;;;13.38;100.00
12247;BME280;6186;52.022;4.692;2023-03-30T04:38:05;100476.72;;;13.39;100.00
12247;BME280;6186;52.022;4.692;2023-03-30T04:40:31;100479.50;;;13.36;100.00
12247;BME280;6186;52.022;4.692;2023-03-30T04:42:58;100460.47;;;13.28;100.00
12247;BME280;6186;52.022;4.692;2023-03-30T04:45:27;100465.75;;;13.28;100.00
12247;BME280;6186;52.022;4.692;2023-03-30T04:47:52;100450.22;;;13.20;100.00
12247;BME280;6186;52.022;4.692;2023-03-30T04:50:17;100448.53;;;13.17;100.00
12247;BME280;6186;52.022;4.692;2023-03-30T04:52:43;100447.63;;;13.18;100.00
12247;BME280;6186;52.022;4.692;2023-03-30T04:55:09;100456.69;;;13.13;100.00
12247;BME280;6186;52.022;4.692;2023-03-30T04:57:36;100455.97;;;13.09;100.00
12247;BME280;6186;52.022;4.692;2023-03-30T05:00:03;100445.72;;;13.00;100.00
12247;BME280;6186;52.022;4.692;2023-03-30T05:02:31;100453.69;;;12.99;100.00
12247;BME280;6186;52.022;4.692;2023-03-30T05:04:56;100459.19;;;12.94;100.00
12247;BME280;6186;52.022;4.692;2023-03-30T05:07:22;100454.97;;;12.90;100.00
12247;BME280;6186;52.022;4.692;2023-03-30T05:09:47;100441.06;;;12.85;100.00
12247;BME280;6186;52.022;4.692;2023-03-30T05:12:14;100435.03;;;12.82;100.00
12247;BME280;6186;52.022;4.692;2023-03-30T05:14:40;100447.50;;;12.78;100.00
12247;BME280;6186;52.022;4.692;2023-03-30T05:17:06;100438.22;;;12.68;100.00
12247;BME280;6186;52.022;4.692;2023-03-30T05:19:32;100447.03;;;12.69;100.00
12247;BME280;6186;52.022;4.692;2023-03-30T05:21:58;100442.84;;;12.63;100.00
12247;BME280;6186;52.022;4.692;2023-03-30T05:24:23;100449.06;;;12.62;100.00
12247;BME280;6186;52.022;4.692;2023-03-30T05:26:48;100464.94;;;12.61;100.00
12247;BME280;6186;52.022;4.692;2023-03-30T05:29:14;100465.22;;;12.55;100.00
12247;BME280;6186;52.022;4.692;2023-03-30T05:31:39;100464.22;;;12.57;100.00
12247;BME280;6186;52.022;4.692;2023-03-30T05:34:04;100467.78;;;12.56;100.00
12247;BME280;6186;52.022;4.692;2023-03-30T05:36:30;100465.25;;;12.53;100.00
12247;BME280;6186;52.022;4.692;2023-03-30T05:38:56;100472.38;;;12.51;100.00
12247;BME280;6186;52.022;4.692;2023-03-30T05:41:21;100478.44;;;12.53;100.00
12247;BME280;6186;52.022;4.692;2023-03-30T05:43:46;100477.66;;;12.51;100.00
12247;BME280;6186;52.022;4.692;2023-03-30T05:46:13;100461.13;;;12.46;100.00
12247;BME280;6186;52.022;4.692;2023-03-30T05:48:38;100464.50;;;12.50;100.00
12247;BME280;6186;52.022;4.692;2023-03-30T05:51:04;100469.84;;;12.48;100.00
12247;BME280;6186;52.022;4.692;2023-03-30T05:53:29;100484.88;;;12.46;100.00
12247;BME280;6186;52.022;4.692;2023-03-30T05:55:55;100481.44;;;12.44;100.00
12247;BME280;6186;52.022;4.692;2023-03-30T05:58:20;100486.59;;;12.47;100.00
12247;BME280;6186;52.022;4.692;2023-03-30T06:00:46;100493.47;;;12.51;100.00
12247;BME280;6186;52.022;4.692;2023-03-30T06:03:13;100496.81;;;12.56;100.00
12247;BME280;6186;52.022;4.692;2023-03-30T06:05:39;100498.66;;;12.54;100.00
12247;BME280;6186;52.022;4.692;2023-03-30T06:08:08;100509.91;;;12.59;100.00
12247;BME280;6186;52.022;4.692;2023-03-30T06:10:34;100509.91;;;12.59;100.00
12247;BME280;6186;52.022;4.692;2023-03-30T06:13:00;100515.09;;;12.61;100.00
12247;BME280;6186;52.022;4.692;2023-03-30T06:15:25;100518.69;;;12.60;100.00
12247;BME280;6186;52.022;4.692;2023-03-30T06:17:51;100504.56;;;12.61;100.00
12247;BME280;6186;52.022;4.692;2023-03-30T06:20:17;100515.91;;;12.63;100.00
12247;BME280;6186;52.022;4.692;2023-03-30T06:22:45;100512.38;;;12.64;100.00
12247;BME280;6186;52.022;4.692;2023-03-30T06:25:11;100510.56;;;12.64;100.00
12247;BME280;6186;52.022;4.692;2023-03-30T06:27:38;100522.88;;;12.65;100.00
12247;BME280;6186;52.022;4.692;2023-03-30T06:30:04;100512.38;;;12.64;100.00
12247;BME280;6186;52.022;4.692;2023-03-30T06:32:29;100511.34;;;12.68;100.00
12247;BME280;6186;52.022;4.692;2023-03-30T06:34:55;100521.03;;;12.67;100.00
12247;BME280;6186;52.022;4.692;2023-03-30T06:37:21;100529.84;;;12.66;100.00
12247;BME280;6186;52.022;4.692;2023-03-30T06:39:46;100537.78;;;12.66;100.00
12247;BME280;6186;52.022;4.692;2023-03-30T06:42:11;100536.97;;;12.64;100.00
12247;BME280;6186;52.022;4.692;2023-03-30T06:44:37;100534.34;;;12.64;100.00
12247;BME280;6186;52.022;4.692;2023-03-30T06:47:04;100537.78;;;12.66;100.00
12247;BME280;6186;52.022;4.692;2023-03-30T06:49:30;100538.72;;;12.65;100.00
12247;BME280;6186;52.022;4.692;2023-03-30T06:51:56;100542.25;;;12.64;100.00
12247;BME280;6186;52.022;4.692;2023-03-30T06:54:21;100549.28;;;12.65;100.00
12247;BME280;6186;52.022;4.692;2023-03-30T06:56:47;100551.84;;;12.67;100.00
12247;BME280;6186;52.022;4.692;2023-03-30T06:59:14;100556.16;;;12.69;100.00
12247;BME280;6186;52.022;4.692;2023-03-30T07:01:39;100559.59;;;12.71;100.00
12247;BME280;6186;52.022;4.692;2023-03-30T07:04:05;100562.06;;;12.76;100.00
12247;BME280;6186;52.022;4.692;2023-03-30T07:06:31;100565.50;;;12.78;100.00
12247;BME280;6186;52.022;4.692;2023-03-30T07:08:57;100560.16;;;12.79;100.00
12247;BME280;6186;52.022;4.692;2023-03-30T07:11:22;100565.25;;;12.84;100.00
12247;BME280;6186;52.022;4.692;2023-03-30T07:13:48;100565.25;;;12.84;100.00
12247;BME280;6186;52.022;4.692;2023-03-30T07:16:13;100572.09;;;12.89;100.00
12247;BME280;6186;52.022;4.692;2023-03-30T07:18:38;100570.09;;;12.96;100.00
12247;BME280;6186;52.022;4.692;2023-03-30T07:21:04;100569.94;;;12.99;100.00
12247;BME280;6186;52.022;4.692;2023-03-30T07:23:29;100572.50;;;13.02;100.00
12247;BME280;6186;52.022;4.692;2023-03-30T07:25:55;100562.75;;;13.02;100.00
12247;BME280;6186;52.022;4.692;2023-03-30T07:28:21;100564.53;;;13.03;100.00
12247;BME280;6186;52.022;4.692;2023-03-30T07:30:46;100574.97;;;13.06;100.00
12247;BME280;6186;52.022;4.692;2023-03-30T07:33:11;100578.25;;;13.13;100.00
12247;BME280;6186;52.022;4.692;2023-03-30T07:35:46;100588.81;;;13.13;100.00
12247;BME280;6186;52.022;4.692;2023-03-30T07:38:12;100595.00;;;13.12;100.00
12247;BME280;6186;52.022;4.692;2023-03-30T07:40:38;100593.28;;;13.11;100.00
12247;BME280;6186;52.022;4.692;2023-03-30T07:43:04;100587.28;;;13.07;100.00
12247;BME280;6186;52.022;4.692;2023-03-30T07:45:29;100594.34;;;13.07;100.00
12247;BME280;6186;52.022;4.692;2023-03-30T07:47:55;100591.81;;;13.02;100.00
12247;BME280;6186;52.022;4.692;2023-03-30T07:50:20;100604.09;;;13.05;100.00
12247;BME280;6186;52.022;4.692;2023-03-30T07:52:46;100598.81;;;13.05;100.00
12247;BME280;6186;52.022;4.692;2023-03-30T07:55:12;100598.75;;;13.06;100.00
12247;BME280;6186;52.022;4.692;2023-03-30T07:57:37;100605.72;;;13.09;100.00
12247;BME280;6186;52.022;4.692;2023-03-30T08:00:03;100605.78;;;13.07;100.00
12247;BME280;6186;52.022;4.692;2023-03-30T08:02:34;100601.47;;;13.05;100.00
12247;BME280;6186;52.022;4.692;2023-03-30T08:05:00;100602.31;;;13.05;100.00
12247;BME280;6186;52.022;4.692;2023-03-30T08:07:26;100613.72;;;13.06;100.00
12247;BME280;6186;52.022;4.692;2023-03-30T08:09:52;100621.50;;;13.10;100.00
12247;BME280;6186;52.022;4.692;2023-03-30T08:12:17;100616.88;;;13.15;100.00
12247;BME280;6186;52.022;4.692;2023-03-30T08:14:42;100610.63;;;13.18;100.00
12247;BME280;6186;52.022;4.692;2023-03-30T08:17:08;100617.59;;;13.20;100.00
12247;BME280;6186;52.022;4.692;2023-03-30T08:19:33;100620.88;;;13.26;100.00
12247;BME280;6186;52.022;4.692;2023-03-30T08:21:58;100616.25;;;13.32;100.00
12247;BME280;6186;52.022;4.692;2023-03-30T08:24:25;100637.13;;;13.38;100.00
12247;BME280;6186;52.022;4.692;2023-03-30T08:26:51;100623.72;;;13.43;100.00
12247;BME280;6186;52.022;4.692;2023-03-30T08:29:16;100637.63;;;13.48;100.00
12247;BME280;6186;52.022;4.692;2023-03-30T08:31:42;100627.72;;;13.53;100.00
12247;BME280;6186;52.022;4.692;2023-03-30T08:34:09;100624.47;;;13.68;100.00
12247;BME280;6186;52.022;4.692;2023-03-30T08:36:35;100632.75;;;13.80;100.00
12247;BME280;6186;52.022;4.692;2023-03-30T08:39:01;100628.56;;;13.95;100.00
12247;BME280;6186;52.022;4.692;2023-03-30T08:43:57;100614.97;;;14.24;100.00
12247;BME280;6186;52.022;4.692;2023-03-30T08:46:22;100634.53;;;14.42;100.00
12247;BME280;6186;52.022;4.692;2023-03-30T08:48:50;100618.75;;;14.59;100.00
12247;BME280;6186;52.022;4.692;2023-03-30T08:51:33;100623.28;;;14.75;100.00
12247;BME280;6186;52.022;4.692;2023-03-30T08:54:02;100613.31;;;14.80;100.00
12247;BME280;6186;52.022;4.692;2023-03-30T08:56:35;100637.16;;;14.99;100.00
12247;BME280;6186;52.022;4.692;2023-03-30T08:59:23;100641.75;;;15.14;100.00
12247;BME280;6186;52.022;4.692;2023-03-30T09:02:00;100641.09;;;15.28;100.00
12247;BME280;6186;52.022;4.692;2023-03-30T09:07:39;100641.59;;;15.54;100.00
12247;BME280;6186;52.022;4.692;2023-03-30T09:10:11;100643.38;;;15.72;100.00
12247;BME280;6186;52.022;4.692;2023-03-30T09:12:41;100650.22;;;15.59;100.00
12247;BME280;6186;52.022;4.692;2023-03-30T09:18:37;100661.69;;;15.23;100.00
12247;BME280;6186;52.022;4.692;2023-03-30T09:20:38;100674.59;;;15.30;100.00
12247;BME280;6186;52.022;4.692;2023-03-30T09:23:05;100657.44;;;15.56;100.00
12247;BME280;6186;52.022;4.692;2023-03-30T09:25:53;100664.88;;;16.02;100.00
12247;BME280;6186;52.022;4.692;2023-03-30T09:31:12;100673.78;;;16.69;100.00
12247;BME280;6186;52.022;4.692;2023-03-30T09:33:51;100675.06;;;16.95;100.00
12247;BME280;6186;52.022;4.692;2023-03-30T09:36:25;100655.84;;;17.06;100.00
12247;BME280;6186;52.022;4.692;2023-03-30T09:38:52;100675.09;;;17.26;100.00
12247;BME280;6186;52.022;4.692;2023-03-30T09:44:11;100674.84;;;17.62;100.00
12247;BME280;6186;52.022;4.692;2023-03-30T09:46:43;100675.38;;;18.14;100.00
12247;BME280;6186;52.022;4.692;2023-03-30T09:49:13;100682.75;;;18.54;100.00
12247;BME280;6186;52.022;4.692;2023-03-30T09:51:55;100683.94;;;18.78;100.00
12247;BME280;6186;52.022;4.692;2023-03-30T09:54:21;100684.50;;;18.97;100.00
12247;BME280;6186;52.022;4.692;2023-03-30T09:56:46;100684.72;;;18.94;100.00
12247;BME280;6186;52.022;4.692;2023-03-30T09:59:35;100683.94;;;19.06;100.00
12247;BME280;6186;52.022;4.692;2023-03-30T10:02:27;100684.22;;;19.16;100.00
12247;BME280;6186;52.022;4.692;2023-03-30T10:04:57;100682.53;;;18.87;100.00
12247;BME280;6186;52.022;4.692;2023-03-30T10:07:34;100694.41;;;18.37;100.00
12247;BME280;6186;52.022;4.692;2023-03-30T10:10:22;100699.09;;;18.18;100.00
12247;BME280;6186;52.022;4.692;2023-03-30T10:12:54;100687.78;;;18.44;100.00
12247;BME280;6186;52.022;4.692;2023-03-30T10:15:22;100693.09;;;18.88;100.00
12247;BME280;6186;52.022;4.692;2023-03-30T10:17:52;100683.44;;;19.28;100.00
12247;BME280;6186;52.022;4.692;2023-03-30T10:20:33;100690.69;;;19.54;100.00
12247;BME280;6186;52.022;4.692;2023-03-30T10:23:14;100681.38;;;19.33;100.00
12247;BME280;6186;52.022;4.692;2023-03-30T10:25:42;100704.25;;;19.51;100.00
12247;BME280;6186;52.022;4.692;2023-03-30T10:28:16;100693.47;;;19.79;100.00
12247;BME280;6186;52.022;4.692;2023-03-30T10:30:50;100686.38;;;19.92;100.00
12247;BME280;6186;52.022;4.692;2023-03-30T10:33:16;100703.09;;;20.08;100.00
12247;BME280;6186;52.022;4.692;2023-03-30T10:35:42;100710.69;;;20.28;100.00
12247;BME280;6186;52.022;4.692;2023-03-30T10:38:07;100708.03;;;20.41;100.00
12247;BME280;6186;52.022;4.692;2023-03-30T10:40:39;100683.53;;;20.34;100.00
12247;BME280;6186;52.022;4.692;2023-03-30T10:43:18;100706.41;;;20.38;100.00
12247;BME280;6186;52.022;4.692;2023-03-30T10:45:51;100724.34;;;20.24;100.00
12247;BME280;6186;52.022;4.692;2023-03-30T10:51:37;100717.75;;;19.20;100.00
12247;BME280;6186;52.022;4.692;2023-03-30T10:54:34;100718.31;;;18.83;100.00
12247;BME280;6186;52.022;4.692;2023-03-30T10:57:17;100715.34;;;18.73;100.00
12247;BME280;6186;52.022;4.692;2023-03-30T11:02:45;100723.53;;;18.70;100.00
12247;BME280;6186;52.022;4.692;2023-03-30T11:05:18;100732.50;;;18.69;100.00
12247;BME280;6186;52.022;4.692;2023-03-30T11:07:53;100727.22;;;18.53;100.00
12247;BME280;6186;52.022;4.692;2023-03-30T11:10:25;100724.34;;;18.42;100.00
12247;BME280;6186;52.022;4.692;2023-03-30T11:13:23;100731.06;;;18.63;100.00
12247;BME280;6186;52.022;4.692;2023-03-30T11:15:53;100723.63;;;18.54;100.00
12247;BME280;6186;52.022;4.692;2023-03-30T11:26:02;100733.84;;;17.54;100.00
12247;BME280;6186;52.022;4.692;2023-03-30T11:28:45;100736.63;;;17.36;100.00
12247;BME280;6186;52.022;4.692;2023-03-30T11:34:19;100741.13;;;17.03;100.00
12247;BME280;6186;52.022;4.692;2023-03-30T11:37:02;100739.28;;;16.87;100.00
12247;BME280;6186;52.022;4.692;2023-03-30T11:39:33;100746.31;;;16.71;100.00
12247;BME280;6186;52.022;4.692;2023-03-30T11:42:08;100742.75;;;16.55;100.00
12247;BME280;6186;52.022;4.692;2023-03-30T11:44:38;100739.34;;;16.35;100.00
12247;BME280;6186;52.022;4.692;2023-03-30T11:52:57;100745.88;;;16.28;100.00
12247;BME280;6186;52.022;4.692;2023-03-30T11:55:47;100749.31;;;16.48;100.00
12247;BME280;6186;52.022;4.692;2023-03-30T12:03:58;100758.03;;;16.84;100.00
12247;BME280;6186;52.022;4.692;2023-03-30T12:06:33;100750.94;;;16.68;100.00
12247;BME280;6186;52.022;4.692;2023-03-30T12:11:49;100763.16;;;16.36;100.00
12247;BME280;6186;52.022;4.692;2023-03-30T12:28:44;100783.41;;;16.03;100.00
12247;BME280;6186;52.022;4.692;2023-03-30T12:31:10;100776.19;;;15.88;100.00
12247;BME280;6186;52.022;4.692;2023-03-30T12:33:51;100779.34;;;15.77;100.00
12247;BME280;6186;52.022;4.692;2023-03-30T12:36:34;100771.13;;;15.65;100.00
12247;BME280;6186;52.022;4.692;2023-03-30T12:39:05;100777.78;;;15.55;100.00
12247;BME280;6186;52.022;4.692;2023-03-30T12:41:40;100765.06;;;15.43;100.00
12247;BME280;6186;52.022;4.692;2023-03-30T12:47:15;100769.91;;;15.53;100.00
12247;BME280;6186;52.022;4.692;2023-03-30T12:50:08;100772.31;;;15.58;100.00
12247;BME280;6186;52.022;4.692;2023-03-30T12:52:53;100760.44;;;15.66;100.00
12247;BME280;6186;52.022;4.692;2023-03-30T12:55:33;100748.66;;;15.72;100.00
12247;BME280;6186;52.022;4.692;2023-03-30T12:58:15;100751.72;;;16.00;100.00
12247;BME280;6186;52.022;4.692;2023-03-30T13:06:20;100743.22;;;16.80;100.00
12247;BME280;6186;52.022;4.692;2023-03-30T13:08:46;100750.78;;;16.71;100.00
12247;BME280;6186;52.022;4.692;2023-03-30T13:11:15;100746.97;;;16.59;100.00
12247;BME280;6186;52.022;4.692;2023-03-30T13:16:13;100746.63;;;16.65;100.00
12247;BME280;6186;52.022;4.692;2023-03-30T13:18:51;100735.16;;;16.82;100.00
12247;BME280;6186;52.022;4.692;2023-03-30T13:21:24;100733.38;;;16.98;100.00
12247;BME280;6186;52.022;4.692;2023-03-30T13:24:03;100739.38;;;17.02;100.00
12247;BME280;6186;52.022;4.692;2023-03-30T13:26:39;100739.25;;;17.05;100.00
12247;BME280;6186;52.022;4.692;2023-03-30T13:29:11;100729.22;;;17.10;100.00
12247;BME280;6186;52.022;4.692;2023-03-30T13:45:36;100726.25;;;16.99;100.00
12247;BME280;6186;52.022;4.692;2023-03-30T13:48:39;100724.72;;;16.94;100.00
12247;BME280;6186;52.022;4.692;2023-03-30T13:51:14;100727.28;;;16.96;100.00
12247;BME280;6186;52.022;4.692;2023-03-30T13:53:48;100708.53;;;16.99;100.00
12247;BME280;6186;52.022;4.692;2023-03-30T13:56:14;100722.41;;;17.04;100.00
12247;BME280;6186;52.022;4.692;2023-03-30T13:58:45;100710.91;;;17.04;100.00
12247;BME280;6186;52.022;4.692;2023-03-30T14:01:18;100723.38;;;17.03;100.00
12247;BME280;6186;52.022;4.692;2023-03-30T14:03:49;100729.47;;;17.05;100.00
12247;BME280;6186;52.022;4.692;2023-03-30T14:06:17;100712.66;;;17.05;100.00
12247;BME280;6186;52.022;4.692;2023-03-30T14:08:47;100715.91;;;17.10;100.00
12247;BME280;6186;52.022;4.692;2023-03-30T14:11:19;100728.09;;;17.14;100.00
12247;BME280;6186;52.022;4.692;2023-03-30T14:13:48;100712.16;;;17.14;100.00
12247;BME280;6186;52.022;4.692;2023-03-30T14:16:20;100723.09;;;17.08;100.00
12247;BME280;6186;52.022;4.692;2023-03-30T14:18:47;100711.59;;;17.07;100.00
12247;BME280;6186;52.022;4.692;2023-03-30T14:21:19;100718.88;;;17.04;100.00
12247;BME280;6186;52.022;4.692;2023-03-30T14:23:53;100722.41;;;17.04;100.00
12247;BME280;6186;52.022;4.692;2023-03-30T14:26:23;100718.13;;;17.02;100.00
12247;BME280;6186;52.022;4.692;2023-03-30T14:29:03;100707.47;;;17.02;100.00
12247;BME280;6186;52.022;4.692;2023-03-30T14:31:38;100720.16;;;16.97;100.00
12247;BME280;6186;52.022;4.692;2023-03-30T14:34:25;100730.97;;;16.93;100.00
12247;BME280;6186;52.022;4.692;2023-03-30T14:37:13;100725.56;;;16.95;100.00
12247;BME280;6186;52.022;4.692;2023-03-30T14:39:41;100726.75;;;16.89;100.00
12247;BME280;6186;52.022;4.692;2023-03-30T14:42:19;100723.56;;;16.83;100.00
12247;BME280;6186;52.022;4.692;2023-03-30T14:44:47;100726.47;;;16.78;100.00
12247;BME280;6186;52.022;4.692;2023-03-30T14:47:17;100726.88;;;16.71;100.00
12247;BME280;6186;52.022;4.692;2023-03-30T14:49:43;100725.22;;;16.68;100.00
12247;BME280;6186;52.022;4.692;2023-03-30T14:52:22;100718.34;;;16.64;100.00
12247;BME280;6186;52.022;4.692;2023-03-30T14:54:51;100723.66;;;16.64;100.00
12247;BME280;6186;52.022;4.692;2023-03-30T14:57:20;100718.25;;;16.66;100.00
12247;BME280;6186;52.022;4.692;2023-03-30T14:59:51;100711.16;;;16.66;100.00
12247;BME280;6186;52.022;4.692;2023-03-30T15:02:20;100717.94;;;16.72;100.00
12247;BME280;6186;52.022;4.692;2023-03-30T15:04:46;100711.84;;;16.70;100.00